sensor_id;sensor_type;location;lat;lon;timestamp;pressure;altitude;pressure_sealevel;temperature;humidity
52957;BME280;38819;42.692;23.342;2023-02-19T00:00:59;95570.16;;;8.81;52.75
52957;BME280;38819;42.692;23.342;2023-02-19T00:03:26;95583.34;;;8.82;52.93
52957;BME280;38819;42.692;23.342;2023-02-19T00:05:52;95575.00;;;8.79;53.03
52957;BME280;38819;42.692;23.342;2023-02-19T00:08:17;95573.38;;;8.83;52.96
52957;BME280;38819;42.692;23.342;2023-02-19T00:10:43;95566.91;;;8.89;53.02
52957;BME280;38819;42.692;23.342;2023-02-19T00:13:08;95565.84;;;8.69;53.21
52957;BME280;38819;42.692;23.342;2023-02-19T00:15:34;95563.44;;;8.68;53.64
52957;BME280;38819;42.692;23.342;2023-02-19T00:17:59;95565.31;;;8.73;53.34
52957;BME280;38819;42.692;23.342;2023-02-19T00:20:25;95565.56;;;8.76;53.01
52957;BME280;38819;42.692;23.342;2023-02-19T00:22:50;95572.06;;;8.60;53.73
52957;BME280;38819;42.692;23.342;2023-02-19T00:25:16;95575.28;;;8.51;53.80
52957;BME280;38819;42.692;23.342;2023-02-19T00:27:41;95558.84;;;8.63;53.48
52957;BME280;38819;42.692;23.342;2023-02-19T00:30:07;95555.09;;;8.54;53.73
52957;BME280;38819;42.692;23.342;2023-02-19T00:32:33;95549.16;;;8.47;53.64
52957;BME280;38819;42.692;23.342;2023-02-19T00:34:58;95553.22;;;8.55;53.50
52957;BME280;38819;42.692;23.342;2023-02-19T00:37:23;95550.78;;;8.48;53.20
52957;BME280;38819;42.692;23.342;2023-02-19T00:39:49;95552.44;;;8.44;53.63
52957;BME280;38819;42.692;23.342;2023-02-19T00:42:15;95552.41;;;8.39;53.77
52957;BME280;38819;42.692;23.342;2023-02-19T00:44:40;95543.53;;;8.48;53.67
52957;BME280;38819;42.692;23.342;2023-02-19T00:47:05;95544.34;;;8.44;53.91
52957;BME280;38819;42.692;23.342;2023-02-19T00:49:31;95541.06;;;8.37;54.40
52957;BME280;38819;42.692;23.342;2023-02-19T00:51:56;95526.56;;;8.32;54.22
52957;BME280;38819;42.692;23.342;2023-02-19T00:54:23;95529.53;;;8.31;54.31
52957;BME280;38819;42.692;23.342;2023-02-19T00:56:49;95532.47;;;8.24;54.54
52957;BME280;38819;42.692;23.342;2023-02-19T00:59:15;95526.84;;;8.26;54.56
52957;BME280;38819;42.692;23.342;2023-02-19T01:01:41;95538.13;;;8.33;53.98
52957;BME280;38819;42.692;23.342;2023-02-19T01:04:08;95532.22;;;8.31;54.40
52957;BME280;38819;42.692;23.342;2023-02-19T01:06:34;95532.75;;;8.33;54.14
52957;BME280;38819;42.692;23.342;2023-02-19T01:08:59;95535.44;;;8.33;53.93
52957;BME280;38819;42.692;23.342;2023-02-19T01:11:25;95544.59;;;8.32;53.79
52957;BME280;38819;42.692;23.342;2023-02-19T01:13:51;95543.50;;;8.12;54.56
52957;BME280;38819;42.692;23.342;2023-02-19T01:16:21;95539.72;;;8.13;54.59
52957;BME280;38819;42.692;23.342;2023-02-19T01:18:49;95535.44;;;8.07;54.85
52957;BME280;38819;42.692;23.342;2023-02-19T01:21:17;95524.41;;;8.04;54.91
52957;BME280;38819;42.692;23.342;2023-02-19T01:23:44;95532.50;;;8.04;55.07
52957;BME280;38819;42.692;23.342;2023-02-19T01:26:17;95537.88;;;7.98;55.04
52957;BME280;38819;42.692;23.342;2023-02-19T01:28:45;95537.31;;;7.91;55.38
52957;BME280;38819;42.692;23.342;2023-02-19T01:31:12;95551.84;;;7.95;55.36
52957;BME280;38819;42.692;23.342;2023-02-19T01:33:38;95544.03;;;8.04;55.12
52957;BME280;38819;42.692;23.342;2023-02-19T01:36:05;95538.41;;;8.06;55.50
52957;BME280;38819;42.692;23.342;2023-02-19T01:38:31;95544.56;;;8.06;55.13
52957;BME280;38819;42.692;23.342;2023-02-19T01:40:59;95554.53;;;8.06;55.02
52957;BME280;38819;42.692;23.342;2023-02-19T01:43:25;95560.19;;;7.99;55.10
52957;BME280;38819;42.692;23.342;2023-02-19T01:45:51;95572.84;;;7.98;54.85
52957;BME280;38819;42.692;23.342;2023-02-19T01:48:23;95577.13;;;7.94;55.37
52957;BME280;38819;42.692;23.342;2023-02-19T01:53:23;95573.91;;;7.97;55.09
52957;BME280;38819;42.692;23.342;2023-02-19T01:55:53;95577.38;;;7.88;55.19
52957;BME280;38819;42.692;23.342;2023-02-19T01:58:20;95589.19;;;7.87;55.30
52957;BME280;38819;42.692;23.342;2023-02-19T02:00:47;95569.56;;;7.86;55.13
52957;BME280;38819;42.692;23.342;2023-02-19T02:03:12;95570.66;;;7.90;55.10
52957;BME280;38819;42.692;23.342;2023-02-19T02:08:07;95577.09;;;7.84;55.10
52957;BME280;38819;42.692;23.342;2023-02-19T02:10:51;95571.44;;;7.75;55.18
52957;BME280;38819;42.692;23.342;2023-02-19T02:13:17;95584.09;;;7.85;55.32
52957;BME280;38819;42.692;23.342;2023-02-19T02:16:22;95573.31;;;7.80;55.08
52957;BME280;38819;42.692;23.342;2023-02-19T02:19:00;95579.78;;;7.74;55.22
52957;BME280;38819;42.692;23.342;2023-02-19T02:21:52;95581.63;;;7.68;55.37
52957;BME280;38819;42.692;23.342;2023-02-19T02:29:54;95577.88;;;7.69;55.29
52957;BME280;38819;42.692;23.342;2023-02-19T02:32:29;95575.69;;;7.56;55.89
52957;BME280;38819;42.692;23.342;2023-02-19T02:35:01;95576.75;;;7.55;55.95
52957;BME280;38819;42.692;23.342;2023-02-19T02:37:32;95584.78;;;7.50;55.90
52957;BME280;38819;42.692;23.342;2023-02-19T02:39:59;95578.63;;;7.49;56.01
52957;BME280;38819;42.692;23.342;2023-02-19T02:42:26;95580.78;;;7.52;56.04
52957;BME280;38819;42.692;23.342;2023-02-19T02:44:52;95581.59;;;7.53;56.06
52957;BME280;38819;42.692;23.342;2023-02-19T02:47:40;95571.84;;;7.41;56.11
52957;BME280;38819;42.692;23.342;2023-02-19T02:50:12;95571.63;;;7.48;55.74
52957;BME280;38819;42.692;23.342;2023-02-19T02:52:41;95569.50;;;7.50;55.98
52957;BME280;38819;42.692;23.342;2023-02-19T02:55:29;95571.91;;;7.52;55.83
52957;BME280;38819;42.692;23.342;2023-02-19T02:57:55;95570.84;;;7.53;55.96
52957;BME280;38819;42.692;23.342;2023-02-19T03:00:22;95574.56;;;7.47;56.07
52957;BME280;38819;42.692;23.342;2023-02-19T03:02:48;95570.84;;;7.58;55.85
52957;BME280;38819;42.692;23.342;2023-02-19T03:05:20;95567.63;;;7.56;55.50
52957;BME280;38819;42.692;23.342;2023-02-19T03:10:38;95583.94;;;7.34;56.45
52957;BME280;38819;42.692;23.342;2023-02-19T03:13:09;95580.41;;;7.28;56.52
52957;BME280;38819;42.692;23.342;2023-02-19T03:16:06;95579.09;;;7.31;56.77
52957;BME280;38819;42.692;23.342;2023-02-19T03:18:53;95580.63;;;7.16;57.22
52957;BME280;38819;42.692;23.342;2023-02-19T03:21:40;95594.88;;;7.12;57.38
52957;BME280;38819;42.692;23.342;2023-02-19T03:24:10;95599.09;;;7.02;57.69
52957;BME280;38819;42.692;23.342;2023-02-19T03:26:57;95603.97;;;7.11;57.28
52957;BME280;38819;42.692;23.342;2023-02-19T03:29:26;95606.41;;;7.12;57.20
52957;BME280;38819;42.692;23.342;2023-02-19T03:32:56;95602.41;;;7.20;57.19
52957;BME280;38819;42.692;23.342;2023-02-19T03:34:56;95611.31;;;7.26;57.14
52957;BME280;38819;42.692;23.342;2023-02-19T03:37:31;95610.50;;;7.25;57.12
52957;BME280;38819;42.692;23.342;2023-02-19T03:39:58;95608.84;;;7.19;57.00
52957;BME280;38819;42.692;23.342;2023-02-19T03:47:27;95622.47;;;7.02;57.80
52957;BME280;38819;42.692;23.342;2023-02-19T03:55:37;95636.94;;;6.96;57.89
52957;BME280;38819;42.692;23.342;2023-02-19T03:58:19;95628.13;;;7.05;57.57
52957;BME280;38819;42.692;23.342;2023-02-19T04:01:09;95626.25;;;7.11;57.36
52957;BME280;38819;42.692;23.342;2023-02-19T04:03:58;95627.63;;;7.14;57.67
52957;BME280;38819;42.692;23.342;2023-02-19T04:06:29;95628.19;;;7.16;57.55
52957;BME280;38819;42.692;23.342;2023-02-19T04:08:59;95629.81;;;7.17;57.49
52957;BME280;38819;42.692;23.342;2023-02-19T04:11:27;95635.47;;;7.20;57.29
52957;BME280;38819;42.692;23.342;2023-02-19T04:14:13;95634.28;;;7.06;58.00
52957;BME280;38819;42.692;23.342;2023-02-19T04:16:52;95626.53;;;7.10;57.70
52957;BME280;38819;42.692;23.342;2023-02-19T04:19:20;95637.28;;;7.10;57.55
52957;BME280;38819;42.692;23.342;2023-02-19T04:21:49;95649.84;;;6.99;57.98
52957;BME280;38819;42.692;23.342;2023-02-19T04:24:23;95635.06;;;7.01;57.72
52957;BME280;38819;42.692;23.342;2023-02-19T04:26:51;95638.34;;;7.09;57.71
52957;BME280;38819;42.692;23.342;2023-02-19T04:29:17;95644.78;;;7.08;57.65
52957;BME280;38819;42.692;23.342;2023-02-19T04:31:43;95649.34;;;7.07;57.93
52957;BME280;38819;42.692;23.342;2023-02-19T04:34:08;95649.59;;;7.00;57.85
52957;BME280;38819;42.692;23.342;2023-02-19T04:36:34;95637.50;;;7.03;57.45
52957;BME280;38819;42.692;23.342;2023-02-19T04:38:59;95642.03;;;6.97;57.24
52957;BME280;38819;42.692;23.342;2023-02-19T04:41:25;95640.94;;;6.93;57.66
52957;BME280;38819;42.692;23.342;2023-02-19T04:43:50;95641.75;;;6.94;57.57
52957;BME280;38819;42.692;23.342;2023-02-19T04:46:15;95650.25;;;6.80;57.90
52957;BME280;38819;42.692;23.342;2023-02-19T04:48:41;95649.97;;;6.77;58.07
52957;BME280;38819;42.692;23.342;2023-02-19T04:51:10;95650.72;;;6.72;58.22
52957;BME280;38819;42.692;23.342;2023-02-19T04:53:36;95648.84;;;6.73;58.22
52957;BME280;38819;42.692;23.342;2023-02-19T04:56:10;95649.16;;;6.81;57.85
52957;BME280;38819;42.692;23.342;2023-02-19T04:58:35;95653.47;;;6.82;58.04
52957;BME280;38819;42.692;23.342;2023-02-19T05:01:01;95655.81;;;6.68;58.33
52957;BME280;38819;42.692;23.342;2023-02-19T05:03:27;95656.94;;;6.78;58.09
52957;BME280;38819;42.692;23.342;2023-02-19T05:05:53;95665.53;;;6.80;58.16
52957;BME280;38819;42.692;23.342;2023-02-19T05:08:18;95661.72;;;6.71;58.62
52957;BME280;38819;42.692;23.342;2023-02-19T05:10:44;95666.81;;;6.67;58.96
52957;BME280;38819;42.692;23.342;2023-02-19T05:13:09;95660.91;;;6.70;58.76
52957;BME280;38819;42.692;23.342;2023-02-19T05:15:35;95662.56;;;6.76;58.61
52957;BME280;38819;42.692;23.342;2023-02-19T05:18:00;95668.00;;;6.86;58.44
52957;BME280;38819;42.692;23.342;2023-02-19T05:20:26;95654.66;;;6.97;58.07
52957;BME280;38819;42.692;23.342;2023-02-19T05:22:51;95662.25;;;7.05;57.85
52957;BME280;38819;42.692;23.342;2023-02-19T05:25:16;95675.44;;;7.12;57.76
52957;BME280;38819;42.692;23.342;2023-02-19T05:27:42;95661.44;;;7.10;58.10
52957;BME280;38819;42.692;23.342;2023-02-19T05:30:08;95661.41;;;7.04;58.31
52957;BME280;38819;42.692;23.342;2023-02-19T05:32:34;95669.25;;;7.11;57.92
52957;BME280;38819;42.692;23.342;2023-02-19T05:35:00;95685.91;;;7.13;57.82
52957;BME280;38819;42.692;23.342;2023-02-19T05:37:26;95681.38;;;7.14;57.80
52957;BME280;38819;42.692;23.342;2023-02-19T05:39:51;95686.94;;;7.02;58.08
52957;BME280;38819;42.692;23.342;2023-02-19T05:42:16;95687.50;;;7.09;58.01
52957;BME280;38819;42.692;23.342;2023-02-19T05:44:42;95690.22;;;7.14;57.80
52957;BME280;38819;42.692;23.342;2023-02-19T05:47:08;95689.75;;;7.22;58.02
52957;BME280;38819;42.692;23.342;2023-02-19T05:49:33;95684.34;;;7.17;57.78
52957;BME280;38819;42.692;23.342;2023-02-19T05:51:59;95686.53;;;7.26;57.75
52957;BME280;38819;42.692;23.342;2023-02-19T05:54:27;95694.06;;;7.23;58.05
52957;BME280;38819;42.692;23.342;2023-02-19T05:56:53;95695.88;;;7.18;58.30
52957;BME280;38819;42.692;23.342;2023-02-19T05:59:21;95702.66;;;7.26;57.85
52957;BME280;38819;42.692;23.342;2023-02-19T06:01:48;95712.38;;;7.32;58.08
52957;BME280;38819;42.692;23.342;2023-02-19T06:04:14;95702.69;;;7.31;57.94
52957;BME280;38819;42.692;23.342;2023-02-19T06:06:40;95710.03;;;7.46;57.50
52957;BME280;38819;42.692;23.342;2023-02-19T06:09:07;95711.09;;;7.45;57.91
52957;BME280;38819;42.692;23.342;2023-02-19T06:11:33;95716.00;;;7.58;57.08
52957;BME280;38819;42.692;23.342;2023-02-19T06:13:58;95725.22;;;7.67;57.13
52957;BME280;38819;42.692;23.342;2023-02-19T06:16:24;95725.53;;;7.81;56.73
52957;BME280;38819;42.692;23.342;2023-02-19T06:18:50;95729.56;;;7.78;57.01
52957;BME280;38819;42.692;23.342;2023-02-19T06:21:16;95728.53;;;7.90;57.01
52957;BME280;38819;42.692;23.342;2023-02-19T06:23:42;95723.19;;;8.00;56.52
52957;BME280;38819;42.692;23.342;2023-02-19T06:26:14;95721.91;;;8.18;56.02
52957;BME280;38819;42.692;23.342;2023-02-19T06:28:40;95729.47;;;8.31;55.96
52957;BME280;38819;42.692;23.342;2023-02-19T06:31:07;95726.25;;;8.34;55.56
52957;BME280;38819;42.692;23.342;2023-02-19T06:33:33;95719.31;;;8.44;54.85
52957;BME280;38819;42.692;23.342;2023-02-19T06:36:00;95719.88;;;8.51;54.89
52957;BME280;38819;42.692;23.342;2023-02-19T06:38:26;95733.88;;;8.63;55.24
52957;BME280;38819;42.692;23.342;2023-02-19T06:40:52;95730.91;;;8.60;54.68
52957;BME280;38819;42.692;23.342;2023-02-19T06:43:17;95731.47;;;8.72;54.37
52957;BME280;38819;42.692;23.342;2023-02-19T06:45:43;95724.47;;;8.86;53.93
52957;BME280;38819;42.692;23.342;2023-02-19T06:48:08;95731.22;;;8.99;53.49
52957;BME280;38819;42.692;23.342;2023-02-19T06:50:34;95726.34;;;9.12;53.22
52957;BME280;38819;42.692;23.342;2023-02-19T06:52:59;95726.63;;;9.15;52.86
52957;BME280;38819;42.692;23.342;2023-02-19T06:55:25;95732.56;;;9.22;52.51
52957;BME280;38819;42.692;23.342;2023-02-19T06:57:50;95735.25;;;9.27;52.09
52957;BME280;38819;42.692;23.342;2023-02-19T07:00:16;95737.13;;;9.37;51.83
52957;BME280;38819;42.692;23.342;2023-02-19T07:02:41;95748.97;;;9.52;51.22
52957;BME280;38819;42.692;23.342;2023-02-19T07:05:07;95749.19;;;9.60;51.00
52957;BME280;38819;42.692;23.342;2023-02-19T07:07:32;95741.41;;;9.64;51.08
52957;BME280;38819;42.692;23.342;2023-02-19T07:09:57;95740.53;;;9.74;50.89
52957;BME280;38819;42.692;23.342;2023-02-19T07:12:23;95734.28;;;9.89;50.58
52957;BME280;38819;42.692;23.342;2023-02-19T07:14:48;95735.66;;;9.91;50.57
52957;BME280;38819;42.692;23.342;2023-02-19T07:17:14;95744.28;;;9.88;50.82
52957;BME280;38819;42.692;23.342;2023-02-19T07:19:39;95739.41;;;9.95;50.62
52957;BME280;38819;42.692;23.342;2023-02-19T07:22:05;95732.91;;;10.01;50.52
52957;BME280;38819;42.692;23.342;2023-02-19T07:24:30;95728.28;;;10.07;50.69
52957;BME280;38819;42.692;23.342;2023-02-19T07:26:55;95726.41;;;10.13;50.53
52957;BME280;38819;42.692;23.342;2023-02-19T07:29:21;95711.78;;;10.19;50.50
52957;BME280;38819;42.692;23.342;2023-02-19T07:31:46;95714.19;;;10.26;50.33
52957;BME280;38819;42.692;23.342;2023-02-19T07:34:12;95709.28;;;10.38;50.13
52957;BME280;38819;42.692;23.342;2023-02-19T07:36:37;95710.28;;;10.47;49.84
52957;BME280;38819;42.692;23.342;2023-02-19T07:39:03;95707.31;;;10.49;49.68
52957;BME280;38819;42.692;23.342;2023-02-19T07:41:28;95703.47;;;10.60;49.66
52957;BME280;38819;42.692;23.342;2023-02-19T07:43:53;95703.44;;;10.65;49.56
52957;BME280;38819;42.692;23.342;2023-02-19T07:46:19;95707.72;;;10.71;49.50
52957;BME280;38819;42.692;23.342;2023-02-19T07:48:45;95708.16;;;10.84;49.52
52957;BME280;38819;42.692;23.342;2023-02-19T07:51:13;95706.50;;;10.93;49.08
52957;BME280;38819;42.692;23.342;2023-02-19T07:53:41;95703.19;;;11.01;49.07
52957;BME280;38819;42.692;23.342;2023-02-19T07:56:09;95707.44;;;11.07;48.77
52957;BME280;38819;42.692;23.342;2023-02-19T07:58:44;95704.41;;;11.14;48.81
52957;BME280;38819;42.692;23.342;2023-02-19T08:01:17;95706.72;;;11.26;48.48
52957;BME280;38819;42.692;23.342;2023-02-19T08:03:44;95698.59;;;11.31;48.21
52957;BME280;38819;42.692;23.342;2023-02-19T08:06:10;95714.78;;;11.36;47.79
52957;BME280;38819;42.692;23.342;2023-02-19T08:08:37;95702.78;;;11.42;47.84
52957;BME280;38819;42.692;23.342;2023-02-19T08:11:04;95707.34;;;11.47;47.61
52957;BME280;38819;42.692;23.342;2023-02-19T08:13:50;95703.00;;;11.51;47.53
52957;BME280;38819;42.692;23.342;2023-02-19T08:16:17;95700.94;;;11.67;47.00
52957;BME280;38819;42.692;23.342;2023-02-19T08:18:45;95707.13;;;11.67;46.72
52957;BME280;38819;42.692;23.342;2023-02-19T08:21:11;95701.91;;;11.76;46.75
52957;BME280;38819;42.692;23.342;2023-02-19T08:23:37;95702.44;;;11.78;46.68
52957;BME280;38819;42.692;23.342;2023-02-19T08:26:03;95694.75;;;11.85;46.84
52957;BME280;38819;42.692;23.342;2023-02-19T08:28:29;95698.81;;;11.88;46.66
52957;BME280;38819;42.692;23.342;2023-02-19T08:30:59;95695.50;;;11.96;46.29
52957;BME280;38819;42.692;23.342;2023-02-19T08:33:25;95694.38;;;11.97;46.20
52957;BME280;38819;42.692;23.342;2023-02-19T08:35:50;95702.31;;;11.89;46.53
52957;BME280;38819;42.692;23.342;2023-02-19T08:38:16;95692.53;;;11.93;46.54
52957;BME280;38819;42.692;23.342;2023-02-19T08:40:42;95691.38;;;11.99;46.36
52957;BME280;38819;42.692;23.342;2023-02-19T08:43:10;95692.50;;;11.98;46.71
52957;BME280;38819;42.692;23.342;2023-02-19T08:45:37;95698.44;;;12.00;46.26
52957;BME280;38819;42.692;23.342;2023-02-19T08:48:03;95677.50;;;12.05;46.34
52957;BME280;38819;42.692;23.342;2023-02-19T08:50:30;95685.03;;;12.09;46.75
52957;BME280;38819;42.692;23.342;2023-02-19T08:52:57;95668.16;;;12.17;46.40
52957;BME280;38819;42.692;23.342;2023-02-19T08:55:23;95671.50;;;12.28;46.12
52957;BME280;38819;42.692;23.342;2023-02-19T08:57:48;95659.59;;;12.29;46.06
52957;BME280;38819;42.692;23.342;2023-02-19T09:00:14;95657.78;;;12.43;45.82
52957;BME280;38819;42.692;23.342;2023-02-19T09:02:40;95664.41;;;12.51;46.16
52957;BME280;38819;42.692;23.342;2023-02-19T09:05:05;95659.00;;;12.70;46.26
52957;BME280;38819;42.692;23.342;2023-02-19T09:07:31;95657.38;;;12.69;46.05
52957;BME280;38819;42.692;23.342;2023-02-19T09:09:57;95651.00;;;12.78;46.25
52957;BME280;38819;42.692;23.342;2023-02-19T09:12:23;95644.69;;;12.83;45.96
52957;BME280;38819;42.692;23.342;2023-02-19T09:14:49;95642.09;;;12.92;45.34
52957;BME280;38819;42.692;23.342;2023-02-19T09:17:14;95647.16;;;12.98;45.38
52957;BME280;38819;42.692;23.342;2023-02-19T09:19:40;95630.28;;;13.02;46.08
52957;BME280;38819;42.692;23.342;2023-02-19T09:22:05;95632.53;;;13.13;46.03
52957;BME280;38819;42.692;23.342;2023-02-19T09:24:31;95639.25;;;13.16;45.88
52957;BME280;38819;42.692;23.342;2023-02-19T09:26:57;95643.97;;;13.24;46.28
52957;BME280;38819;42.692;23.342;2023-02-19T09:29:27;95639.06;;;13.26;45.95
52957;BME280;38819;42.692;23.342;2023-02-19T09:31:57;95624.03;;;13.34;45.61
52957;BME280;38819;42.692;23.342;2023-02-19T09:34:24;95622.94;;;13.35;45.77
52957;BME280;38819;42.692;23.342;2023-02-19T09:36:50;95627.88;;;13.47;45.49
52957;BME280;38819;42.692;23.342;2023-02-19T09:39:17;95618.72;;;13.43;45.67
52957;BME280;38819;42.692;23.342;2023-02-19T09:41:43;95627.47;;;13.53;45.55
52957;BME280;38819;42.692;23.342;2023-02-19T09:44:12;95626.66;;;13.53;45.29
52957;BME280;38819;42.692;23.342;2023-02-19T09:46:50;95622.94;;;13.63;44.95
52957;BME280;38819;42.692;23.342;2023-02-19T09:51:57;95620.03;;;13.73;44.94
52957;BME280;38819;42.692;23.342;2023-02-19T09:54:27;95613.88;;;13.81;44.78
52957;BME280;38819;42.692;23.342;2023-02-19T09:56:54;95621.91;;;13.86;44.32
52957;BME280;38819;42.692;23.342;2023-02-19T09:59:26;95607.03;;;13.98;44.52
52957;BME280;38819;42.692;23.342;2023-02-19T10:02:15;95598.56;;;13.99;43.90
52957;BME280;38819;42.692;23.342;2023-02-19T10:04:43;95585.06;;;14.08;44.21
52957;BME280;38819;42.692;23.342;2023-02-19T10:07:21;95584.78;;;14.09;43.16
52957;BME280;38819;42.692;23.342;2023-02-19T10:09:52;95590.09;;;14.15;42.70
52957;BME280;38819;42.692;23.342;2023-02-19T10:12:30;95563.94;;;14.19;42.88
52957;BME280;38819;42.692;23.342;2023-02-19T10:15:04;95573.19;;;14.18;42.73
52957;BME280;38819;42.692;23.342;2023-02-19T10:17:33;95564.41;;;14.21;42.77
52957;BME280;38819;42.692;23.342;2023-02-19T10:20:00;95557.78;;;14.27;42.31
52957;BME280;38819;42.692;23.342;2023-02-19T10:22:30;95543.00;;;14.19;42.29
52957;BME280;38819;42.692;23.342;2023-02-19T10:24:57;95534.72;;;14.24;41.74
52957;BME280;38819;42.692;23.342;2023-02-19T10:27:28;95552.81;;;14.29;41.53
52957;BME280;38819;42.692;23.342;2023-02-19T10:29:55;95531.88;;;14.30;41.37
52957;BME280;38819;42.692;23.342;2023-02-19T10:32:24;95527.16;;;14.35;41.26
52957;BME280;38819;42.692;23.342;2023-02-19T10:35:19;95518.03;;;14.40;41.20
52957;BME280;38819;42.692;23.342;2023-02-19T10:37:47;95527.19;;;14.44;41.14
52957;BME280;38819;42.692;23.342;2023-02-19T10:40:18;95517.44;;;14.43;40.97
52957;BME280;38819;42.692;23.342;2023-02-19T10:42:50;95509.47;;;14.46;40.68
52957;BME280;38819;42.692;23.342;2023-02-19T10:45:19;95499.09;;;14.49;40.56
52957;BME280;38819;42.692;23.342;2023-02-19T10:47:46;95488.41;;;14.52;40.64
52957;BME280;38819;42.692;23.342;2023-02-19T10:50:22;95481.84;;;14.53;40.42
52957;BME280;38819;42.692;23.342;2023-02-19T10:52:54;95480.00;;;14.62;40.47
52957;BME280;38819;42.692;23.342;2023-02-19T10:57:51;95472.22;;;14.70;40.13
52957;BME280;38819;42.692;23.342;2023-02-19T11:00:21;95468.25;;;14.76;40.29
52957;BME280;38819;42.692;23.342;2023-02-19T11:02:47;95460.56;;;14.78;40.19
52957;BME280;38819;42.692;23.342;2023-02-19T11:05:18;95455.00;;;14.83;40.02
52957;BME280;38819;42.692;23.342;2023-02-19T11:07:54;95456.47;;;14.89;39.91
52957;BME280;38819;42.692;23.342;2023-02-19T11:10:27;95461.13;;;14.89;39.78
52957;BME280;38819;42.692;23.342;2023-02-19T11:12:56;95439.38;;;14.89;39.49
52957;BME280;38819;42.692;23.342;2023-02-19T11:15:35;95434.56;;;14.94;39.62
52957;BME280;38819;42.692;23.342;2023-02-19T11:20:53;95420.06;;;15.08;39.24
52957;BME280;38819;42.692;23.342;2023-02-19T11:23:25;95421.53;;;15.14;39.20
52957;BME280;38819;42.692;23.342;2023-02-19T11:25:53;95420.22;;;15.20;38.90
52957;BME280;38819;42.692;23.342;2023-02-19T11:28:40;95404.25;;;15.18;39.12
52957;BME280;38819;42.692;23.342;2023-02-19T11:33:44;95403.63;;;15.30;38.99
52957;BME280;38819;42.692;23.342;2023-02-19T11:38:47;95389.72;;;15.41;38.29
52957;BME280;38819;42.692;23.342;2023-02-19T11:49:51;95373.53;;;15.62;37.86
52957;BME280;38819;42.692;23.342;2023-02-19T12:00:19;95357.38;;;15.83;37.29
52957;BME280;38819;42.692;23.342;2023-02-19T12:06:10;95344.38;;;15.97;36.58
52957;BME280;38819;42.692;23.342;2023-02-19T12:11:38;95338.09;;;16.05;36.47
52957;BME280;38819;42.692;23.342;2023-02-19T12:24:42;95319.59;;;16.28;34.78
52957;BME280;38819;42.692;23.342;2023-02-19T12:38:18;95292.75;;;16.48;34.15
52957;BME280;38819;42.692;23.342;2023-02-19T12:43:18;95279.38;;;16.55;34.14
52957;BME280;38819;42.692;23.342;2023-02-19T12:45:49;95281.47;;;16.58;34.14
52957;BME280;38819;42.692;23.342;2023-02-19T12:51:03;95253.66;;;16.65;33.64
52957;BME280;38819;42.692;23.342;2023-02-19T12:54:05;95253.34;;;16.66;33.63
52957;BME280;38819;42.692;23.342;2023-02-19T12:56:43;95241.00;;;16.69;33.74
52957;BME280;38819;42.692;23.342;2023-02-19T12:59:21;95228.41;;;16.77;33.49
52957;BME280;38819;42.692;23.342;2023-02-19T13:02:23;95232.94;;;16.73;33.46
52957;BME280;38819;42.692;23.342;2023-02-19T13:04:59;95219.56;;;16.80;33.90
52957;BME280;38819;42.692;23.342;2023-02-19T13:07:32;95226.31;;;16.82;34.92
52957;BME280;38819;42.692;23.342;2023-02-19T13:10:14;95219.56;;;16.80;33.84
52957;BME280;38819;42.692;23.342;2023-02-19T13:12:42;95212.50;;;16.88;34.48
52957;BME280;38819;42.692;23.342;2023-02-19T13:15:20;95212.75;;;16.95;34.66
52957;BME280;38819;42.692;23.342;2023-02-19T13:17:51;95203.78;;;16.94;35.09
52957;BME280;38819;42.692;23.342;2023-02-19T13:20:31;95211.09;;;17.02;35.15
52957;BME280;38819;42.692;23.342;2023-02-19T13:23:24;95206.56;;;17.07;34.62
52957;BME280;38819;42.692;23.342;2023-02-19T13:37:10;95180.13;;;17.19;33.57
52957;BME280;38819;42.692;23.342;2023-02-19T13:39:36;95180.56;;;17.21;33.58
52957;BME280;38819;42.692;23.342;2023-02-19T13:42:02;95166.38;;;17.28;33.31
52957;BME280;38819;42.692;23.342;2023-02-19T13:44:32;95159.81;;;17.29;33.59
52957;BME280;38819;42.692;23.342;2023-02-19T13:46:58;95166.50;;;17.32;33.73
52957;BME280;38819;42.692;23.342;2023-02-19T13:49:40;95166.75;;;17.39;33.90
52957;BME280;38819;42.692;23.342;2023-02-19T14:01:03;95165.72;;;17.31;33.14
52957;BME280;38819;42.692;23.342;2023-02-19T14:03:43;95154.75;;;17.19;33.26
52957;BME280;38819;42.692;23.342;2023-02-19T14:06:09;95156.31;;;17.08;34.24
52957;BME280;38819;42.692;23.342;2023-02-19T14:08:48;95158.84;;;17.13;34.22
52957;BME280;38819;42.692;23.342;2023-02-19T14:11:15;95149.03;;;17.12;34.59
52957;BME280;38819;42.692;23.342;2023-02-19T14:19:02;95154.94;;;17.14;34.57
52957;BME280;38819;42.692;23.342;2023-02-19T14:21:37;95150.97;;;17.11;34.82
52957;BME280;38819;42.692;23.342;2023-02-19T14:24:04;95137.78;;;17.13;34.95
52957;BME280;38819;42.692;23.342;2023-02-19T14:26:35;95138.56;;;17.14;34.54
52957;BME280;38819;42.692;23.342;2023-02-19T14:29:01;95139.06;;;17.16;34.57
52957;BME280;38819;42.692;23.342;2023-02-19T14:31:35;95134.72;;;17.15;34.54
52957;BME280;38819;42.692;23.342;2023-02-19T14:34:33;95130.44;;;17.26;34.51
52957;BME280;38819;42.692;23.342;2023-02-19T14:37:00;95139.31;;;17.23;34.41
52957;BME280;38819;42.692;23.342;2023-02-19T14:39:34;95130.78;;;17.25;34.68
52957;BME280;38819;42.692;23.342;2023-02-19T14:42:06;95120.19;;;17.23;34.09
52957;BME280;38819;42.692;23.342;2023-02-19T14:44:51;95117.34;;;17.19;34.31
52957;BME280;38819;42.692;23.342;2023-02-19T14:47:20;95115.16;;;17.13;34.34
52957;BME280;38819;42.692;23.342;2023-02-19T14:49:53;95108.44;;;17.10;33.78
52957;BME280;38819;42.692;23.342;2023-02-19T14:52:26;95118.44;;;17.06;33.70
52957;BME280;38819;42.692;23.342;2023-02-19T14:54:58;95109.59;;;17.09;34.18
52957;BME280;38819;42.692;23.342;2023-02-19T14:57:30;95108.56;;;17.14;34.24
52957;BME280;38819;42.692;23.342;2023-02-19T15:00:02;95108.56;;;17.14;34.86